Time;durP1;ratioP1;P1;durP2;ratioP2;P2;SDS_P1;SDS_P2;PMS_P1;PMS_P2;Temp;Humidity;BMP_temperature;BMP_pressure;BME280_temperature;BME280_humidity;BME280_pressure;Samples;Min_cycle;Max_cycle;Signal;HPM_P1;HPM_P2
2021/06/14 00:00:12;;;;;;;1.87;1.67;;;;;;;12.87;80.67;101397.88;5051255;28;20198;-72
2021/06/14 00:02:39;;;;;;;1.30;1.20;;;;;;;12.81;80.47;101394.41;5051416;28;20179;-72
2021/06/14 00:05:06;;;;;;;2.47;1.70;;;;;;;12.58;81.81;101403.59;5051275;28;20282;-71
2021/06/14 00:07:32;;;;;;;1.80;1.57;;;;;;;12.32;82.63;101401.31;5051066;28;20163;-71
2021/06/14 00:09:57;;;;;;;2.23;1.60;;;;;;;12.21;83.33;101392.44;5050952;28;20242;-72
2021/06/14 00:12:23;;;;;;;1.53;1.30;;;;;;;12.10;83.87;101387.44;5051108;28;20171;-72
2021/06/14 00:14:52;;;;;;;1.73;1.47;;;;;;;12.01;84.49;101392.78;5051227;28;20183;-71
2021/06/14 00:17:18;;;;;;;1.60;1.50;;;;;;;11.97;84.51;101391.72;5050993;28;20167;-72
2021/06/14 00:19:46;;;;;;;1.47;1.37;;;;;;;11.97;84.89;101389.00;5051107;28;20182;-72
2021/06/14 00:22:12;;;;;;;2.27;1.90;;;;;;;11.97;84.60;101386.25;5051082;28;20231;-72
2021/06/14 00:24:38;;;;;;;1.80;1.63;;;;;;;11.98;85.02;101378.84;5066541;28;20698;-72
2021/06/14 00:27:04;;;;;;;1.83;1.60;;;;;;;12.02;85.12;101367.03;5050744;28;20236;-71
2021/06/14 00:29:29;;;;;;;1.20;1.10;;;;;;;12.11;84.77;101367.94;5051008;28;20265;-72
2021/06/14 00:31:54;;;;;;;2.00;1.70;;;;;;;12.20;85.28;101373.56;5050839;28;20317;-71
2021/06/14 00:34:20;;;;;;;2.20;1.50;;;;;;;12.31;84.41;101366.00;5050859;28;20657;-72
2021/06/14 00:36:46;;;;;;;1.60;1.50;;;;;;;12.41;83.90;101368.56;5050709;28;20173;-72
2021/06/14 00:39:11;;;;;;;1.90;1.50;;;;;;;12.42;83.21;101367.44;5050897;28;20258;-72
2021/06/14 00:41:36;;;;;;;2.20;1.80;;;;;;;12.33;82.85;101370.06;5050828;28;20199;-72
2021/06/14 00:44:02;;;;;;;1.67;1.17;;;;;;;12.28;83.39;101358.38;5050669;28;20179;-72
2021/06/14 00:46:27;;;;;;;2.50;1.70;;;;;;;12.29;84.30;101363.53;5050727;28;20182;-72
2021/06/14 00:48:52;;;;;;;1.30;1.20;;;;;;;12.31;84.41;101352.31;5050691;28;20171;-72
2021/06/14 00:51:18;;;;;;;1.40;1.30;;;;;;;12.29;83.18;101355.31;5050806;28;20187;-72
2021/06/14 00:53:44;;;;;;;1.23;1.23;;;;;;;12.29;83.44;101360.78;5050609;28;20618;-72
2021/06/14 00:56:12;;;;;;;1.80;1.47;;;;;;;12.29;83.13;101360.00;5050562;28;20179;-72
2021/06/14 00:58:39;;;;;;;1.30;1.20;;;;;;;12.21;83.53;101358.75;5066375;28;20183;-72
2021/06/14 01:01:06;;;;;;;2.47;1.67;;;;;;;12.05;84.34;101354.66;5050568;28;20179;-71
2021/06/14 01:03:31;;;;;;;3.03;2.43;;;;;;;12.00;84.48;101351.97;5050552;28;20183;-72
2021/06/14 01:06:00;;;;;;;1.80;1.70;;;;;;;12.04;85.38;101348.38;5050513;28;20237;-72
2021/06/14 01:08:34;;;;;;;1.73;1.63;;;;;;;12.05;84.79;101354.66;5050484;28;20274;-72
2021/06/14 01:11:10;;;;;;;1.10;1.00;;;;;;;12.10;85.48;101352.63;5050602;28;20174;-72
2021/06/14 01:13:52;;;;;;;1.60;1.40;;;;;;;12.13;84.25;101349.28;5050504;28;20224;-72
2021/06/14 01:16:28;;;;;;;1.40;1.30;;;;;;;12.09;83.87;101348.28;5050325;28;20214;-72
2021/06/14 01:19:00;;;;;;;2.07;1.43;;;;;;;12.07;84.27;101346.94;5050519;28;20624;-72
2021/06/14 01:21:29;;;;;;;1.47;1.37;;;;;;;12.01;84.87;101350.91;5052352;28;20174;-72
2021/06/14 01:24:29;;;;;;;2.97;1.47;;;;;;;11.95;84.86;101341.13;5054343;28;20179;-72
2021/06/14 01:27:06;;;;;;;2.10;1.67;;;;;;;11.91;85.35;101333.50;5023237;28;20191;-72
2021/06/14 01:29:33;;;;;;;2.03;1.93;;;;;;;11.79;85.44;101329.59;5054246;28;20175;-72
2021/06/14 01:32:00;;;;;;;1.20;1.10;;;;;;;11.68;86.10;101328.09;5054225;28;20186;-72
2021/06/14 01:34:28;;;;;;;2.73;1.77;;;;;;;11.59;86.58;101330.69;5054168;28;20183;-72
2021/06/14 01:36:56;;;;;;;1.70;1.10;;;;;;;11.54;86.98;101320.63;5053971;28;20174;-72
2021/06/14 01:39:24;;;;;;;1.77;1.43;;;;;;;11.47;87.06;101331.13;5054427;28;20177;-71
2021/06/14 01:41:51;;;;;;;1.47;1.37;;;;;;;11.49;87.79;101326.16;5036031;28;20597;-72
2021/06/14 01:44:18;;;;;;;1.73;1.63;;;;;;;11.53;87.38;101323.66;5054025;28;20203;-72
2021/06/14 01:46:46;;;;;;;1.67;1.57;;;;;;;11.41;87.47;101335.03;5053985;28;20282;-72
2021/06/14 01:49:12;;;;;;;2.03;1.93;;;;;;;11.33;87.87;101327.50;5053770;28;20238;-72
2021/06/14 01:51:40;;;;;;;2.87;1.57;;;;;;;11.26;87.91;101327.84;5053352;28;20179;-72
2021/06/14 01:54:06;;;;;;;1.17;1.07;;;;;;;11.28;88.50;101322.06;5053222;28;20178;-72
2021/06/14 01:56:49;;;;;;;1.90;1.20;;;;;;;11.35;88.94;101325.28;5053002;28;20571;-72
2021/06/14 01:59:23;;;;;;;2.07;1.60;;;;;;;11.37;88.52;101316.78;5053230;28;20175;-72
2021/06/14 02:01:50;;;;;;;1.67;1.57;;;;;;;11.35;87.92;101314.34;5053364;28;20191;-72
2021/06/14 02:04:15;;;;;;;1.70;1.60;;;;;;;11.36;87.94;101315.16;5053195;28;20533;-72
2021/06/14 02:06:43;;;;;;;2.17;2.07;;;;;;;11.42;88.28;101316.69;5052833;28;20183;-72
2021/06/14 02:09:11;;;;;;;1.23;1.13;;;;;;;11.49;88.22;101309.75;5053146;28;20176;-71
2021/06/14 02:11:40;;;;;;;1.53;1.20;;;;;;;11.48;86.87;101319.06;5053346;28;20175;-72
2021/06/14 02:14:06;;;;;;;1.47;1.37;;;;;;;11.33;87.09;101311.91;5053368;28;20175;-72
2021/06/14 02:16:32;;;;;;;1.90;1.70;;;;;;;11.33;87.65;101311.91;5053088;28;20171;-72
2021/06/14 02:18:58;;;;;;;2.30;1.67;;;;;;;11.30;87.98;101312.50;5053051;28;20519;-72
2021/06/14 02:21:23;;;;;;;1.53;1.43;;;;;;;11.29;88.19;101302.66;5052788;28;20178;-72
2021/06/14 02:23:49;;;;;;;1.37;1.27;;;;;;;11.31;88.49;101299.63;5052806;28;20262;-72
2021/06/14 02:26:15;;;;;;;1.87;1.77;;;;;;;11.26;88.32;101295.03;5052570;28;20599;-72
2021/06/14 02:28:41;;;;;;;1.40;1.30;;;;;;;11.25;88.59;101304.34;5052983;28;20175;-72
2021/06/14 02:31:08;;;;;;;1.80;1.70;;;;;;;11.29;88.51;101299.13;5052678;28;20214;-72
2021/06/14 02:33:33;;;;;;;1.53;1.43;;;;;;;11.28;88.05;101295.56;5052396;28;20179;-71
2021/06/14 02:35:58;;;;;;;1.63;1.40;;;;;;;11.23;87.94;101294.81;5052689;28;20175;-71
2021/06/14 02:38:25;;;;;;;2.93;1.73;;;;;;;11.24;88.27;101296.44;5052277;28;20168;-72
2021/06/14 02:40:51;;;;;;;1.23;1.10;;;;;;;11.23;88.50;101284.69;5067954;28;20232;-72
2021/06/14 02:43:21;;;;;;;1.93;1.57;;;;;;;11.26;88.57;101284.06;5052416;28;20179;-72
2021/06/14 02:45:49;;;;;;;1.33;1.23;;;;;;;11.28;89.35;101284.63;5052353;28;20199;-72
2021/06/14 02:48:17;;;;;;;1.77;1.67;;;;;;;11.35;88.69;101275.22;5052110;28;20179;-72
2021/06/14 02:50:44;;;;;;;1.90;1.80;;;;;;;11.38;88.01;101277.34;5052320;28;20171;-72
2021/06/14 02:53:11;;;;;;;3.33;2.00;;;;;;;11.40;87.51;101278.69;5052163;28;20167;-72
2021/06/14 02:55:55;;;;;;;4.17;1.57;;;;;;;11.38;87.09;101285.56;5052521;28;20171;-71
2021/06/14 02:58:28;;;;;;;2.30;1.43;;;;;;;11.25;87.29;101287.09;5051965;28;20175;-72
2021/06/14 03:00:54;;;;;;;1.93;1.70;;;;;;;11.08;87.58;101284.88;5051921;28;20179;-72
2021/06/14 03:03:20;;;;;;;1.87;1.67;;;;;;;11.01;88.16;101281.72;5052108;28;20257;-72
2021/06/14 03:05:46;;;;;;;1.30;1.20;;;;;;;11.03;89.11;101284.97;5051932;28;20203;-72
2021/06/14 03:08:12;;;;;;;1.97;1.87;;;;;;;10.98;89.60;101277.63;5051714;28;20181;-72
2021/06/14 03:10:37;;;;;;;1.63;1.53;;;;;;;10.72;89.77;101271.69;5051900;28;20187;-72
2021/06/14 03:13:04;;;;;;;2.97;2.77;;;;;;;10.69;90.88;101264.03;5051641;28;20168;-72
2021/06/14 03:15:32;;;;;;;1.43;1.33;;;;;;;10.81;91.74;101257.34;5051723;28;20201;-72
2021/06/14 03:17:59;;;;;;;1.57;1.37;;;;;;;10.91;91.91;101266.25;5051540;28;20233;-72
2021/06/14 03:20:25;;;;;;;1.70;1.53;;;;;;;11.03;91.46;101263.91;5051717;28;20171;-72
2021/06/14 03:22:51;;;;;;;1.53;1.43;;;;;;;11.10;90.60;101268.19;5051610;28;20183;-72
2021/06/14 03:25:17;;;;;;;2.30;2.13;;;;;;;11.09;90.04;101261.91;5051592;28;20533;-72
2021/06/14 03:27:44;;;;;;;1.70;1.60;;;;;;;11.12;90.58;101261.31;5051175;28;20191;-72
2021/06/14 03:30:11;;;;;;;1.97;1.83;;;;;;;11.12;89.90;101266.78;5051476;28;20202;-72
2021/06/14 03:32:42;;;;;;;1.80;1.70;;;;;;;11.12;89.52;101255.84;5051357;28;20187;-72
2021/06/14 03:35:11;;;;;;;2.03;1.80;;;;;;;11.03;89.85;101260.34;5051393;28;20579;-72
2021/06/14 03:37:37;;;;;;;1.70;1.37;;;;;;;11.04;90.03;101251.03;5051152;28;20171;-72
2021/06/14 03:40:04;;;;;;;1.87;1.77;;;;;;;11.11;90.38;101259.69;5051314;28;20220;-72
2021/06/14 03:42:31;;;;;;;1.70;1.60;;;;;;;11.02;90.40;101250.53;5050981;28;20639;-72
2021/06/14 03:44:58;;;;;;;2.50;2.30;;;;;;;11.04;90.80;101251.03;5050864;28;20622;-72
2021/06/14 03:47:23;;;;;;;1.30;1.20;;;;;;;11.10;90.90;101252.59;5050958;28;20585;-72
2021/06/14 03:49:48;;;;;;;2.40;1.47;;;;;;;11.14;90.37;101245.44;5051129;28;20232;-72
2021/06/14 03:52:14;;;;;;;1.57;1.47;;;;;;;11.23;91.14;101242.84;5051005;28;20171;-72
2021/06/14 03:54:39;;;;;;;1.80;1.70;;;;;;;11.31;90.61;101247.66;5051067;28;20265;-72
2021/06/14 03:57:05;;;;;;;1.90;1.50;;;;;;;11.33;90.49;101254.44;5050577;28;20221;-72
2021/06/14 03:59:31;;;;;;;2.90;1.80;;;;;;;11.37;90.31;101249.19;5051411;28;20241;-72
2021/06/14 04:01:56;;;;;;;1.97;1.43;;;;;;;11.46;89.82;101244.69;5032870;28;20183;-73
2021/06/14 04:06:56;;;;;;;1.60;1.40;;;;;;;11.68;89.89;101246.78;5050705;28;20175;-72
2021/06/14 04:09:21;;;;;;;2.37;2.10;;;;;;;11.78;89.31;101249.34;5065998;28;20270;-72
2021/06/14 04:11:47;;;;;;;1.80;1.70;;;;;;;11.90;89.26;101244.25;5050652;28;20179;-72
2021/06/14 04:14:12;;;;;;;1.40;1.30;;;;;;;11.98;89.07;101245.47;5050599;28;20254;-72
2021/06/14 04:16:37;;;;;;;2.67;2.47;;;;;;;12.05;88.25;101243.16;5050375;28;20263;-73
2021/06/14 04:19:02;;;;;;;3.00;2.20;;;;;;;12.20;87.49;101240.16;5050634;28;20218;-72
2021/06/14 04:21:28;;;;;;;2.47;2.03;;;;;;;12.31;87.32;101242.69;5050697;28;20179;-73
2021/06/14 04:23:53;;;;;;;2.17;1.73;;;;;;;12.30;85.33;101246.56;5066038;28;20310;-72
2021/06/14 04:26:19;;;;;;;2.30;2.10;;;;;;;12.12;85.01;101234.53;5050231;28;20215;-72
2021/06/14 04:28:44;;;;;;;2.33;2.07;;;;;;;12.02;84.93;101237.50;5050455;28;20182;-72
2021/06/14 04:31:09;;;;;;;3.20;1.97;;;;;;;12.20;86.13;101239.34;5050579;28;20183;-73
2021/06/14 04:33:35;;;;;;;2.50;1.90;;;;;;;12.23;87.15;101235.97;5050613;28;20210;-72
2021/06/14 04:36:02;;;;;;;2.70;2.30;;;;;;;12.34;86.80;101239.34;5050403;28;20236;-72
2021/06/14 04:38:28;;;;;;;2.33;2.13;;;;;;;12.59;86.28;101240.78;5065510;28;20193;-72
2021/06/14 04:40:53;;;;;;;2.63;2.43;;;;;;;12.57;85.94;101232.03;5050254;28;20179;-73
2021/06/14 04:43:19;;;;;;;2.63;2.43;;;;;;;12.60;86.08;101228.69;5050216;28;20550;-72
2021/06/14 04:45:44;;;;;;;4.03;2.23;;;;;;;12.70;86.00;101231.22;5050155;28;20208;-73
2021/06/14 04:48:09;;;;;;;2.30;2.07;;;;;;;12.71;84.41;101230.09;5065394;28;20179;-72
2021/06/14 04:50:35;;;;;;;2.87;2.10;;;;;;;12.84;84.37;101232.00;5065685;28;20205;-72
2021/06/14 04:53:00;;;;;;;2.47;2.10;;;;;;;12.96;85.06;101232.28;5050063;28;20240;-72
2021/06/14 04:55:25;;;;;;;2.67;1.97;;;;;;;13.01;84.53;101232.16;5065736;28;20229;-72
2021/06/14 04:57:54;;;;;;;2.13;1.97;;;;;;;13.17;84.63;101237.34;5053406;28;20530;-72
2021/06/14 05:00:20;;;;;;;2.37;2.17;;;;;;;13.17;82.48;101234.59;5064350;28;20229;-73
2021/06/14 05:02:46;;;;;;;2.73;2.40;;;;;;;13.18;82.43;101230.72;5074684;28;20162;-72
2021/06/14 05:05:11;;;;;;;2.30;2.10;;;;;;;13.26;83.28;101235.50;5055488;28;20274;-72
2021/06/14 05:07:37;;;;;;;2.40;2.20;;;;;;;13.19;83.58;101230.44;5054588;28;20581;-73
2021/06/14 05:10:03;;;;;;;2.80;2.27;;;;;;;13.07;84.47;101233.69;5054560;28;20190;-72
2021/06/14 05:12:29;;;;;;;2.50;2.30;;;;;;;13.25;83.93;101236.63;5054451;28;20547;-72
2021/06/14 05:14:54;;;;;;;1.90;1.77;;;;;;;13.39;84.46;101235.44;5054575;28;20167;-72
2021/06/14 05:17:20;;;;;;;2.10;1.90;;;;;;;13.54;83.96;101247.19;5054443;28;20174;-73
2021/06/14 05:19:45;;;;;;;2.73;2.10;;;;;;;13.64;82.56;101242.28;5054514;28;20175;-73
2021/06/14 05:22:11;;;;;;;1.93;1.80;;;;;;;13.57;82.28;101244.63;5054349;28;20255;-73
2021/06/14 05:24:37;;;;;;;1.80;1.70;;;;;;;13.54;82.50;101242.50;5054173;28;20195;-73
2021/06/14 05:27:03;;;;;;;3.27;2.20;;;;;;;13.53;83.85;101240.88;5054157;28;20167;-73
2021/06/14 05:29:28;;;;;;;1.73;1.63;;;;;;;13.55;83.03;101243.31;5054166;28;20170;-73
2021/06/14 05:31:54;;;;;;;1.70;1.60;;;;;;;13.57;84.07;101252.06;5054268;28;20164;-72
2021/06/14 05:34:19;;;;;;;2.07;1.87;;;;;;;13.59;83.60;101258.03;5054269;28;20171;-73
2021/06/14 05:36:45;;;;;;;1.97;1.77;;;;;;;13.63;83.41;101259.88;5054054;28;20176;-73
2021/06/14 05:39:10;;;;;;;1.93;1.83;;;;;;;13.65;84.18;101260.38;5054132;28;20182;-73
2021/06/14 05:41:35;;;;;;;2.57;1.80;;;;;;;13.77;85.19;101259.00;5054143;28;20170;-73
2021/06/14 05:44:01;;;;;;;3.17;2.87;;;;;;;13.92;85.81;101264.09;5054026;28;20233;-72
2021/06/14 05:46:26;;;;;;;4.60;3.83;;;;;;;14.11;86.35;101263.88;5053980;28;20772;-73
2021/06/14 05:48:52;;;;;;;2.00;1.90;;;;;;;14.21;86.85;101267.19;5054214;28;20551;-72
2021/06/14 05:51:17;;;;;;;3.13;2.73;;;;;;;14.28;85.93;101264.78;5053902;28;20704;-72
2021/06/14 05:53:42;;;;;;;2.40;2.03;;;;;;;14.36;85.22;101265.16;5053813;28;20171;-72
2021/06/14 05:56:08;;;;;;;2.70;2.50;;;;;;;14.40;84.67;101274.38;5053816;28;20803;-71
2021/06/14 05:58:33;;;;;;;2.53;2.33;;;;;;;14.45;84.80;101266.81;5053583;28;20182;-71
2021/06/14 06:00:59;;;;;;;2.50;2.30;;;;;;;14.52;84.53;101249.88;5053474;28;20554;-72
2021/06/14 06:03:24;;;;;;;1.70;1.60;;;;;;;14.64;84.24;101257.53;5053560;28;20175;-72
2021/06/14 06:05:49;;;;;;;4.37;2.10;;;;;;;14.81;84.62;101247.38;5053677;28;20252;-72
2021/06/14 06:08:15;;;;;;;2.13;2.03;;;;;;;14.96;83.25;101248.06;5052809;28;20178;-73
2021/06/14 06:10:40;;;;;;;2.30;2.10;;;;;;;15.06;83.10;101240.31;5053550;28;20178;-72
2021/06/14 06:13:06;;;;;;;2.33;2.13;;;;;;;15.18;83.31;101245.16;5053429;28;20178;-72
2021/06/14 06:15:32;;;;;;;2.47;1.80;;;;;;;15.31;82.70;101248.88;5053323;28;20578;-73
2021/06/14 06:17:57;;;;;;;2.43;2.23;;;;;;;15.52;81.89;101238.88;5053382;28;20163;-72
2021/06/14 06:20:23;;;;;;;1.93;1.77;;;;;;;15.73;80.49;101241.78;5053566;28;20777;-72
2021/06/14 06:22:49;;;;;;;3.17;2.87;;;;;;;15.91;79.97;101242.53;5053315;28;20259;-72
2021/06/14 06:25:17;;;;;;;2.33;2.00;;;;;;;16.06;79.73;101242.84;5053459;28;20629;-72
2021/06/14 06:27:44;;;;;;;1.73;1.63;;;;;;;16.21;74.60;101230.47;5053108;28;20670;-72
2021/06/14 06:30:11;;;;;;;2.07;1.87;;;;;;;16.37;75.90;101241.78;5053519;28;20221;-72
2021/06/14 06:32:36;;;;;;;2.53;2.00;;;;;;;16.49;71.02;101239.13;5052670;28;20179;-72
2021/06/14 06:35:03;;;;;;;1.43;1.33;;;;;;;16.61;70.11;101247.47;5052946;28;20171;-72
2021/06/14 06:37:28;;;;;;;1.30;1.20;;;;;;;16.82;69.41;101241.25;5052288;28;20183;-73
2021/06/14 06:39:54;;;;;;;2.00;1.83;;;;;;;16.91;69.49;101244.75;5052061;28;20236;-73
2021/06/14 06:42:19;;;;;;;2.63;1.80;;;;;;;17.01;70.06;101235.28;5052468;28;20253;-73
2021/06/14 06:44:44;;;;;;;2.50;2.00;;;;;;;17.08;69.66;101241.09;5052198;28;20201;-72
2021/06/14 06:47:10;;;;;;;2.40;1.73;;;;;;;17.25;67.89;101238.19;5052231;28;20203;-72
2021/06/14 06:49:35;;;;;;;1.23;1.13;;;;;;;17.30;67.37;101239.94;5052285;28;20658;-72
2021/06/14 06:52:01;;;;;;;1.23;1.10;;;;;;;17.47;67.12;101237.03;5052154;28;20171;-75
2021/06/14 06:54:26;;;;;;;2.00;1.90;;;;;;;17.57;66.38;101233.84;5052502;28;20171;-72
2021/06/14 06:56:54;;;;;;;1.50;1.40;;;;;;;17.68;65.62;101224.03;5051978;28;20561;-73
2021/06/14 06:59:20;;;;;;;2.37;1.47;;;;;;;17.81;67.60;101222.91;5052238;28;20179;-73
2021/06/14 07:01:45;;;;;;;2.30;2.10;;;;;;;17.89;65.16;101217.63;5052428;28;20240;-73
2021/06/14 07:04:11;;;;;;;1.70;1.60;;;;;;;17.96;64.52;101217.88;5067345;28;20634;-73
2021/06/14 07:06:37;;;;;;;2.67;2.07;;;;;;;18.06;66.09;101215.47;5051513;28;20167;-73
2021/06/14 07:09:04;;;;;;;2.03;1.87;;;;;;;18.13;62.46;101223.22;5052208;28;20168;-73
2021/06/14 07:11:30;;;;;;;1.30;1.20;;;;;;;18.16;61.86;101233.59;5051854;28;20168;-73
2021/06/14 07:13:56;;;;;;;1.60;1.50;;;;;;;18.20;61.68;101225.41;5052924;28;20184;-73
2021/06/14 07:16:22;;;;;;;2.17;1.87;;;;;;;18.32;60.83;101215.16;5064175;28;20179;-73
2021/06/14 07:18:49;;;;;;;1.40;1.30;;;;;;;18.49;60.88;101207.78;5071533;28;20166;-72
2021/06/14 07:21:15;;;;;;;0.87;0.87;;;;;;;18.57;59.66;101221.53;5061565;28;20175;-73
2021/06/14 07:23:40;;;;;;;1.50;1.23;;;;;;;18.62;58.00;101218.50;5067628;28;20175;-73
2021/06/14 07:26:06;;;;;;;0.87;0.87;;;;;;;18.67;59.21;101204.47;5052158;28;20191;-72
2021/06/14 07:28:33;;;;;;;1.47;1.37;;;;;;;18.77;57.71;101205.16;5052080;28;20171;-72
2021/06/14 07:31:03;;;;;;;1.20;1.10;;;;;;;18.81;57.27;101204.13;5034433;28;20519;-75
2021/06/14 07:33:28;;;;;;;1.50;1.30;;;;;;;18.82;57.25;101207.69;5051982;28;20179;-74
2021/06/14 07:35:53;;;;;;;0.90;0.90;;;;;;;18.96;57.60;101211.72;5051561;28;20183;-74
2021/06/14 07:38:19;;;;;;;3.40;1.43;;;;;;;18.92;55.21;101198.88;5051165;28;20480;-73
2021/06/14 07:40:45;;;;;;;2.23;1.77;;;;;;;18.99;58.02;101205.47;5051339;28;20805;-72
2021/06/14 07:43:14;;;;;;;1.67;1.20;;;;;;;19.09;56.19;101200.56;5051252;28;20224;-72
2021/06/14 07:45:41;;;;;;;0.60;0.60;;;;;;;19.16;54.58;101196.06;5051236;28;20199;-72
2021/06/14 07:48:08;;;;;;;1.67;1.30;;;;;;;19.19;56.03;101192.59;5051043;28;20213;-73
2021/06/14 07:50:34;;;;;;;0.83;0.83;;;;;;;19.29;54.88;101180.22;5051328;28;20175;-73
2021/06/14 07:53:00;;;;;;;1.50;1.30;;;;;;;19.28;55.25;101190.50;5066509;28;20179;-74
2021/06/14 07:55:26;;;;;;;1.37;1.23;;;;;;;19.39;55.92;101190.81;5051141;28;20182;-74
2021/06/14 07:57:52;;;;;;;1.60;1.50;;;;;;;19.47;54.73;101177.94;5051076;28;20171;-73
2021/06/14 08:00:17;;;;;;;1.47;1.37;;;;;;;19.60;55.34;101177.56;5051031;28;20186;-74
2021/06/14 08:02:43;;;;;;;1.30;1.20;;;;;;;19.58;55.67;101173.53;5033258;28;20182;-73
2021/06/14 08:05:10;;;;;;;2.00;1.40;;;;;;;19.63;53.68;101166.91;5051047;28;20206;-74
2021/06/14 08:07:36;;;;;;;2.40;1.37;;;;;;;19.72;54.44;101173.91;5050952;28;20178;-74
2021/06/14 08:10:03;;;;;;;1.63;1.00;;;;;;;19.78;54.23;101163.34;5050828;28;20191;-73
2021/06/14 08:12:31;;;;;;;1.00;1.00;;;;;;;19.99;52.92;101168.66;5050769;28;20175;-73
2021/06/14 08:14:56;;;;;;;1.83;1.60;;;;;;;20.04;51.98;101171.16;5066309;28;20214;-74
2021/06/14 08:17:22;;;;;;;1.10;1.10;;;;;;;20.08;52.31;101166.50;5050435;28;20709;-73
2021/06/14 08:19:52;;;;;;;1.83;1.40;;;;;;;20.16;52.61;101165.53;5050839;28;20186;-74
2021/06/14 08:27:33;;;;;;;1.60;1.17;;;;;;;20.38;53.04;101161.28;5050460;28;20703;-73
2021/06/14 08:29:59;;;;;;;1.70;1.50;;;;;;;20.36;50.94;101155.28;5050339;28;20643;-75
2021/06/14 08:32:24;;;;;;;2.67;1.73;;;;;;;20.37;51.04;101154.13;5050431;28;20259;-74
2021/06/14 08:34:49;;;;;;;2.30;1.50;;;;;;;20.38;51.40;101150.97;5050431;28;20262;-73
2021/06/14 08:37:15;;;;;;;1.50;1.40;;;;;;;20.48;50.88;101149.66;5050302;28;20179;-74
2021/06/14 08:39:40;;;;;;;1.33;1.23;;;;;;;20.61;51.24;101142.03;5050435;28;20535;-73
2021/06/14 08:42:06;;;;;;;2.30;1.50;;;;;;;20.61;50.29;101139.25;5050360;28;20171;-74
2021/06/14 08:44:32;;;;;;;2.47;1.40;;;;;;;20.68;50.36;101144.94;5050162;28;20179;-74
2021/06/14 08:46:58;;;;;;;1.87;1.73;;;;;;;20.71;48.22;101142.28;5050088;28;20167;-73
2021/06/14 08:49:25;;;;;;;0.63;0.63;;;;;;;20.66;47.69;101125.88;5050172;28;20171;-73
2021/06/14 08:51:51;;;;;;;1.00;0.93;;;;;;;20.74;49.89;101124.88;5050349;28;20167;-73
2021/06/14 08:54:16;;;;;;;1.43;1.30;;;;;;;20.86;49.68;101118.38;5050690;28;20171;-73
2021/06/14 08:56:41;;;;;;;1.07;0.87;;;;;;;20.80;48.04;101115.06;5050430;28;20178;-73
2021/06/14 08:59:07;;;;;;;1.30;1.20;;;;;;;20.96;52.10;101119.75;5050086;28;20644;-73
2021/06/14 09:01:32;;;;;;;1.40;1.30;;;;;;;21.11;51.14;101110.53;5049997;28;20682;-73
2021/06/14 09:03:58;;;;;;;1.70;1.17;;;;;;;21.21;49.74;101111.94;5050137;28;20186;-73
2021/06/14 09:06:24;;;;;;;1.93;1.00;;;;;;;21.28;49.74;101098.22;5049796;28;20340;-73
2021/06/14 09:08:56;;;;;;;1.30;1.20;;;;;;;21.43;48.64;101100.09;5050116;28;20175;-73
2021/06/14 09:11:21;;;;;;;2.10;1.07;;;;;;;21.44;48.45;101112.81;5050025;28;20174;-73
2021/06/14 09:13:47;;;;;;;1.17;1.07;;;;;;;21.52;49.41;101099.84;5049896;28;20179;-72
2021/06/14 09:16:15;;;;;;;1.60;1.27;;;;;;;21.63;49.92;101095.28;5049904;28;20171;-72
2021/06/14 09:18:43;;;;;;;1.17;1.07;;;;;;;21.57;46.87;101094.78;5050025;28;20240;-73
2021/06/14 09:21:16;;;;;;;1.10;1.00;;;;;;;21.61;46.69;101084.53;5049954;28;20182;-73
2021/06/14 09:23:48;;;;;;;1.33;1.23;;;;;;;21.72;47.80;101087.50;5050035;28;20548;-72
2021/06/14 09:26:23;;;;;;;1.33;1.23;;;;;;;21.74;48.08;101084.34;5049692;28;20710;-73
2021/06/14 09:28:50;;;;;;;2.73;1.20;;;;;;;21.87;47.65;101078.22;5050235;28;20186;-73
2021/06/14 09:31:16;;;;;;;1.40;1.30;;;;;;;21.89;48.29;101066.72;5049867;28;20236;-72
2021/06/14 09:33:44;;;;;;;1.20;1.10;;;;;;;21.96;47.45;101072.38;5049921;28;20168;-73
2021/06/14 09:36:10;;;;;;;1.37;1.27;;;;;;;22.11;48.66;101067.84;5049918;28;20180;-73
2021/06/14 09:38:35;;;;;;;1.87;1.57;;;;;;;22.27;46.51;101063.72;5049551;28;20172;-73
2021/06/14 09:41:09;;;;;;;0.70;0.70;;;;;;;22.12;45.27;101061.13;5049658;28;20210;-72
2021/06/14 09:43:37;;;;;;;0.83;0.83;;;;;;;22.01;45.22;101047.03;5053338;28;20721;-73
2021/06/14 09:46:06;;;;;;;6.60;1.90;;;;;;;22.12;45.91;101049.97;5053479;28;20233;-72
2021/06/14 09:48:35;;;;;;;1.20;0.97;;;;;;;22.25;44.99;101049.38;5053359;28;20199;-73
2021/06/14 09:51:06;;;;;;;2.77;1.43;;;;;;;22.10;42.90;101050.34;5053832;28;20167;-73
2021/06/14 09:53:35;;;;;;;0.60;0.60;;;;;;;21.92;45.09;101041.72;5053390;28;20178;-72
2021/06/14 09:56:18;;;;;;;1.07;0.80;;;;;;;22.12;45.74;101036.06;5035402;28;20172;-73
2021/06/14 09:58:45;;;;;;;0.90;0.90;;;;;;;22.32;45.00;101029.22;5053192;28;20662;-72
2021/06/14 10:01:10;;;;;;;2.03;1.10;;;;;;;22.39;43.97;101026.50;5053103;28;20540;-72
2021/06/14 10:03:44;;;;;;;3.30;1.60;;;;;;;22.43;43.27;101030.16;5049423;28;20184;-73
2021/06/14 10:06:11;;;;;;;0.90;0.90;;;;;;;22.79;46.36;101025.03;5053315;28;20214;-73
2021/06/14 10:08:36;;;;;;;1.20;1.10;;;;;;;22.98;43.69;101027.66;5057768;28;20179;-73
2021/06/14 10:11:09;;;;;;;0.80;0.80;;;;;;;23.13;43.71;101021.03;5056673;28;20184;-73
2021/06/14 10:13:38;;;;;;;1.10;1.00;;;;;;;23.33;43.68;101012.47;5058749;28;20177;-72
2021/06/14 10:16:06;;;;;;;1.07;1.07;;;;;;;23.40;41.92;101013.34;5073817;28;20166;-72
2021/06/14 10:18:38;;;;;;;4.13;1.13;;;;;;;23.37;43.34;101016.91;5065097;28;20270;-73
2021/06/14 10:21:08;;;;;;;0.83;0.83;;;;;;;23.48;42.81;101002.25;5053389;28;20159;-72
2021/06/14 10:23:34;;;;;;;1.33;1.23;;;;;;;23.44;44.31;101002.22;5053305;28;20399;-72
2021/06/14 10:26:00;;;;;;;0.87;0.87;;;;;;;23.49;44.04;101001.88;5053182;28;20194;-73
2021/06/14 10:28:27;;;;;;;0.90;0.90;;;;;;;23.73;45.06;101000.50;5053132;28;20175;-73
2021/06/14 10:30:53;;;;;;;1.30;1.20;;;;;;;23.38;42.32;100989.81;5053185;28;20183;-73
2021/06/14 10:33:24;;;;;;;0.73;0.73;;;;;;;23.32;41.49;100983.78;5053102;28;20229;-73
2021/06/14 10:35:52;;;;;;;1.20;1.10;;;;;;;23.43;42.24;100983.88;5063732;28;20197;-73
2021/06/14 10:38:18;;;;;;;1.97;1.30;;;;;;;23.46;42.27;100985.91;5072118;28;20217;-73
2021/06/14 10:40:45;;;;;;;0.80;0.80;;;;;;;23.57;39.58;100972.84;5055088;28;20226;-73
2021/06/14 10:43:11;;;;;;;2.13;0.70;;;;;;;23.78;40.42;100965.84;5073180;28;20228;-72
2021/06/14 10:45:36;;;;;;;0.90;0.90;;;;;;;23.95;42.47;100979.91;5054512;28;20211;-73
2021/06/14 10:48:04;;;;;;;0.70;0.70;;;;;;;23.89;42.15;100978.69;5052740;28;20183;-73
2021/06/14 10:50:35;;;;;;;1.37;0.90;;;;;;;23.56;39.67;100974.00;5052918;28;20202;-73
2021/06/14 10:53:02;;;;;;;0.90;0.80;;;;;;;23.41;41.52;100977.88;5051892;28;20272;-73
2021/06/14 10:55:33;;;;;;;0.57;0.57;;;;;;;23.48;40.29;100983.53;5052464;28;20175;-72
2021/06/14 10:58:00;;;;;;;1.80;0.73;;;;;;;23.59;42.38;100975.28;5052601;28;20197;-73
2021/06/14 11:00:34;;;;;;;1.83;0.90;;;;;;;23.74;41.37;100961.03;5052538;28;20188;-73
2021/06/14 11:03:10;;;;;;;1.50;1.30;;;;;;;23.72;41.07;100962.59;5034129;28;20187;-73
2021/06/14 11:05:47;;;;;;;1.23;1.10;;;;;;;23.98;42.50;100964.34;5051965;28;20673;-73
2021/06/14 11:08:20;;;;;;;1.37;1.27;;;;;;;24.14;40.99;100969.63;5051059;28;20227;-73
2021/06/14 11:11:12;;;;;;;0.90;0.90;;;;;;;24.17;41.78;100971.66;5060666;28;20218;-72
2021/06/14 11:13:48;;;;;;;2.73;1.00;;;;;;;24.20;43.10;100974.47;5049240;28;20191;-72
2021/06/14 11:16:14;;;;;;;0.83;0.77;;;;;;;24.44;42.66;100966.59;5051892;28;20171;-72
2021/06/14 11:18:39;;;;;;;0.93;0.83;;;;;;;24.44;41.19;100969.38;5051622;28;20697;-73
2021/06/14 11:21:21;;;;;;;1.17;1.07;;;;;;;24.42;40.00;100960.59;5051684;28;20205;-73
2021/06/14 11:23:49;;;;;;;1.50;1.40;;;;;;;24.31;40.61;100950.22;5051722;28;20175;-73
2021/06/14 11:26:28;;;;;;;1.00;1.00;;;;;;;24.47;43.00;100946.28;5051751;28;20209;-72
2021/06/14 11:28:54;;;;;;;1.43;1.33;;;;;;;24.50;43.82;100932.31;5052050;28;20640;-73
2021/06/14 11:31:21;;;;;;;1.20;1.10;;;;;;;24.74;41.90;100944.75;5051370;28;20255;-73